createdAt,value
2022-12-20T00:02:17.918Z,24.25
2022-12-20T00:04:47.523Z,24.05
2022-12-20T00:07:17.222Z,25.63
2022-12-20T00:09:49.565Z,35.58
2022-12-20T00:12:19.377Z,40.75
2022-12-20T00:14:49.022Z,40.03
2022-12-20T00:17:19.151Z,44.70
2022-12-20T00:19:49.909Z,42.42
2022-12-20T00:22:19.733Z,40.13
2022-12-20T00:24:49.557Z,37.45
2022-12-20T00:27:19.540Z,36.83
2022-12-20T00:29:49.430Z,38.58
2022-12-20T00:32:19.346Z,41.17
2022-12-20T00:34:49.193Z,43.75
2022-12-20T00:37:19.105Z,41.42
2022-12-20T00:39:49.191Z,41.10
2022-12-20T00:42:19.216Z,43.20
2022-12-20T00:44:49.041Z,44.28
2022-12-20T00:47:19.316Z,44.58
2022-12-20T00:49:49.383Z,46.95
2022-12-20T00:52:19.368Z,44.78
2022-12-20T00:54:49.291Z,46.60
2022-12-20T00:57:19.254Z,50.25
2022-12-20T00:59:49.137Z,56.22
2022-12-20T01:02:19.061Z,54.30
2022-12-20T01:04:50.601Z,53.65
2022-12-20T01:07:21.223Z,54.35
2022-12-20T01:09:50.940Z,52.42
2022-12-20T01:12:21.001Z,53.38
2022-12-20T01:14:50.543Z,51.03
2022-12-20T01:17:21.579Z,50.58
2022-12-20T01:19:51.181Z,51.38
2022-12-20T01:22:20.846Z,48.90
2022-12-20T01:24:50.515Z,47.75
2022-12-20T01:27:20.072Z,49.13
2022-12-20T01:29:49.702Z,46.95
2022-12-20T01:32:19.396Z,46.45
2022-12-20T01:34:49.295Z,43.38
2022-12-20T01:37:19.644Z,40.35
2022-12-20T01:39:49.200Z,39.35
2022-12-20T01:42:18.707Z,38.58
2022-12-20T01:44:57.532Z,33.53
2022-12-20T01:47:29.044Z,32.95
2022-12-20T01:50:02.079Z,32.88
2022-12-20T01:52:45.220Z,28.60
2022-12-20T01:55:28.726Z,26.95
2022-12-20T01:58:05.644Z,24.42
2022-12-20T02:00:35.533Z,22.50
2022-12-20T02:03:09.788Z,21.58
2022-12-20T02:05:42.695Z,19.42
2022-12-20T02:08:15.364Z,19.55
2022-12-20T02:11:24.115Z,17.58
2022-12-20T02:14:32.218Z,17.75
2022-12-20T02:20:09.075Z,17.38
2022-12-20T02:23:13.470Z,17.60
2022-12-20T02:26:09.883Z,16.05
2022-12-20T02:29:08.737Z,15.98
2022-12-20T02:32:11.715Z,18.02
2022-12-20T02:34:43.664Z,16.58
2022-12-20T02:37:13.835Z,17.73
2022-12-20T02:39:46.545Z,17.13
2022-12-20T02:42:22.076Z,17.02
2022-12-20T02:45:19.868Z,15.90
2022-12-20T02:48:00.174Z,16.05
2022-12-20T02:50:37.947Z,15.20
2022-12-20T02:53:09.544Z,17.17
2022-12-20T02:55:54.867Z,16.77
2022-12-20T02:58:55.594Z,14.20
2022-12-20T03:01:35.536Z,14.30
2022-12-20T03:04:05.866Z,14.90
2022-12-20T03:06:35.691Z,13.77
2022-12-20T03:09:05.384Z,14.05
2022-12-20T03:11:35.531Z,15.05
2022-12-20T03:14:05.116Z,14.18
2022-12-20T03:16:34.835Z,14.93
2022-12-20T03:19:04.431Z,12.60
2022-12-20T03:21:34.269Z,14.43
2022-12-20T03:24:04.664Z,13.93
2022-12-20T03:26:34.541Z,12.70
2022-12-20T03:29:04.735Z,11.98
2022-12-20T03:31:35.167Z,12.77
2022-12-20T03:34:05.931Z,10.23
2022-12-20T03:36:36.301Z,10.35
2022-12-20T03:39:06.799Z,11.50
2022-12-20T03:41:36.863Z,10.27
2022-12-20T03:44:06.911Z,10.88
2022-12-20T03:46:36.838Z,11.35
2022-12-20T03:49:06.824Z,10.77
2022-12-20T03:51:36.751Z,10.38
2022-12-20T03:54:06.775Z,10.05
2022-12-20T03:56:36.726Z,12.45
2022-12-20T03:59:06.784Z,12.52
2022-12-20T04:01:38.394Z,12.90
2022-12-20T04:04:10.218Z,12.52
2022-12-20T04:06:40.093Z,12.25
2022-12-20T04:09:10.153Z,10.63
2022-12-20T04:11:41.145Z,11.13
2022-12-20T04:14:11.034Z,11.27
2022-12-20T04:16:41.223Z,11.10
2022-12-20T04:19:11.476Z,11.02
2022-12-20T04:21:41.792Z,10.20
2022-12-20T04:24:12.328Z,11.82
2022-12-20T04:26:42.362Z,11.43
2022-12-20T04:29:12.213Z,12.02
2022-12-20T04:31:42.791Z,9.93
2022-12-20T04:34:12.808Z,11.15
2022-12-20T04:36:42.761Z,10.38
2022-12-20T04:39:12.740Z,9.77
2022-12-20T04:41:42.576Z,10.57
2022-12-20T04:44:12.484Z,11.15
2022-12-20T04:46:42.606Z,11.38
2022-12-20T04:49:12.616Z,10.68
2022-12-20T04:51:42.560Z,10.07
2022-12-20T04:54:12.555Z,11.80
2022-12-20T04:56:42.423Z,11.30
2022-12-20T04:59:14.186Z,11.18
2022-12-20T05:01:44.397Z,10.32
2022-12-20T05:04:14.628Z,9.93
2022-12-20T05:06:44.643Z,10.38
2022-12-20T05:09:14.527Z,10.13
2022-12-20T05:11:44.457Z,9.88
2022-12-20T05:14:14.456Z,9.98
2022-12-20T05:16:44.506Z,9.35
2022-12-20T05:19:14.420Z,9.88
2022-12-20T05:22:03.976Z,10.25
2022-12-20T05:24:54.062Z,10.63
2022-12-20T05:27:23.970Z,10.38
2022-12-20T05:29:53.937Z,10.68
2022-12-20T05:32:23.788Z,11.20
2022-12-20T05:34:53.871Z,10.60
2022-12-20T05:37:23.815Z,11.15
2022-12-20T05:39:53.824Z,10.65
2022-12-20T05:42:23.846Z,9.85
2022-12-20T05:44:53.636Z,9.48
2022-12-20T05:47:23.527Z,10.20
2022-12-20T05:49:53.619Z,10.25
2022-12-20T05:52:23.646Z,10.27
2022-12-20T05:54:53.682Z,11.07
2022-12-20T05:57:23.586Z,9.95
2022-12-20T05:59:53.441Z,9.85
2022-12-20T06:02:23.591Z,9.80
2022-12-20T06:04:53.719Z,9.55
2022-12-20T06:07:25.438Z,9.18
2022-12-20T06:09:55.427Z,9.93
2022-12-20T06:12:25.769Z,9.48
2022-12-20T06:14:55.676Z,9.88
2022-12-20T06:17:25.763Z,9.18
2022-12-20T06:19:55.641Z,9.52
2022-12-20T06:22:25.833Z,9.75
2022-12-20T06:24:55.920Z,9.27
2022-12-20T06:27:25.610Z,8.90
2022-12-20T06:29:56.133Z,8.38
2022-12-20T06:32:25.767Z,9.35
2022-12-20T06:34:55.448Z,8.98
2022-12-20T06:37:25.165Z,8.93
2022-12-20T06:39:54.874Z,9.02
2022-12-20T06:42:24.500Z,9.82
2022-12-20T06:44:54.132Z,9.13
2022-12-20T06:47:23.897Z,9.05
2022-12-20T06:49:53.552Z,10.30
2022-12-20T06:52:23.203Z,8.68
2022-12-20T06:54:52.863Z,9.80
2022-12-20T06:57:22.574Z,8.85
2022-12-20T06:59:52.169Z,9.38
2022-12-20T07:02:22.052Z,9.48
2022-12-20T07:04:52.749Z,9.38
2022-12-20T07:07:22.364Z,10.13
2022-12-20T07:09:52.095Z,9.75
2022-12-20T07:12:22.189Z,9.35
2022-12-20T07:14:52.281Z,10.20
2022-12-20T07:17:22.000Z,9.27
2022-12-20T07:19:51.618Z,9.77
2022-12-20T07:22:21.310Z,9.20
2022-12-20T07:24:52.085Z,9.85
2022-12-20T07:27:22.467Z,10.23
2022-12-20T07:29:52.881Z,9.57
2022-12-20T07:32:22.899Z,9.02
2022-12-20T07:34:52.893Z,9.40
2022-12-20T07:37:22.849Z,11.25
2022-12-20T07:39:52.842Z,9.00
2022-12-20T07:42:22.817Z,10.48
2022-12-20T07:44:52.798Z,9.40
2022-12-20T07:47:23.012Z,9.65
2022-12-20T07:49:52.976Z,9.82
2022-12-20T07:52:26.153Z,9.70
2022-12-20T07:55:04.522Z,10.68
2022-12-20T07:57:43.673Z,9.60
2022-12-20T08:00:14.758Z,9.23
2022-12-20T08:02:51.336Z,9.45
2022-12-20T08:05:21.514Z,9.13
2022-12-20T08:07:56.947Z,9.82
2022-12-20T08:10:30.406Z,9.02
2022-12-20T08:13:01.588Z,9.35
2022-12-20T08:15:31.898Z,10.27
2022-12-20T08:18:01.896Z,9.15
2022-12-20T08:20:31.997Z,9.57
2022-12-20T08:23:01.930Z,9.00
2022-12-20T08:25:37.338Z,9.43
2022-12-20T08:28:11.697Z,8.98
2022-12-20T08:30:41.645Z,9.43
2022-12-20T08:33:11.558Z,9.30
2022-12-20T08:35:41.539Z,9.35
2022-12-20T08:38:11.367Z,9.95
2022-12-20T08:40:41.349Z,9.43
2022-12-20T08:43:11.324Z,10.15
2022-12-20T08:45:41.214Z,9.35
2022-12-20T08:48:11.266Z,10.13
2022-12-20T08:50:41.413Z,9.07
2022-12-20T08:53:11.323Z,9.48
2022-12-20T08:55:42.247Z,9.57
2022-12-20T08:58:12.304Z,9.75
2022-12-20T09:00:42.306Z,9.77
2022-12-20T09:03:13.414Z,9.82
2022-12-20T09:05:50.497Z,10.27
2022-12-20T09:08:20.438Z,10.50
2022-12-20T09:10:50.438Z,9.45
2022-12-20T09:13:20.550Z,10.52
2022-12-20T09:15:50.619Z,10.35
2022-12-20T09:18:20.556Z,10.77
2022-12-20T09:20:50.589Z,9.70
2022-12-20T09:23:20.478Z,10.50
2022-12-20T09:25:53.704Z,9.77
2022-12-20T09:28:25.881Z,9.70
2022-12-20T09:30:59.559Z,10.57
2022-12-20T09:33:30.315Z,9.55
2022-12-20T09:36:00.509Z,9.77
2022-12-20T09:38:32.845Z,10.10
2022-12-20T09:41:06.180Z,9.35
2022-12-20T09:43:36.796Z,10.13
2022-12-20T09:46:06.662Z,9.35
2022-12-20T09:48:42.141Z,9.77
2022-12-20T09:51:45.198Z,9.35
2022-12-20T09:54:41.976Z,8.80
2022-12-20T09:57:50.789Z,10.38
2022-12-20T10:00:22.296Z,10.77
2022-12-20T10:03:08.567Z,9.95
2022-12-20T10:05:55.377Z,9.80
2022-12-20T10:08:53.667Z,9.57
2022-12-20T10:11:56.229Z,10.43
2022-12-20T10:14:56.778Z,9.90
2022-12-20T10:18:05.700Z,10.00
2022-12-20T10:20:59.888Z,9.88
2022-12-20T10:23:41.921Z,9.20
2022-12-20T10:26:14.098Z,9.52
2022-12-20T10:28:46.865Z,10.00
2022-12-20T10:31:21.364Z,9.32
2022-12-20T10:33:51.099Z,10.52
2022-12-20T10:36:31.347Z,10.60
2022-12-20T10:39:07.470Z,10.52
2022-12-20T10:41:51.642Z,10.45
2022-12-20T10:44:30.472Z,9.30
2022-12-20T10:47:03.615Z,9.38
2022-12-20T10:49:42.658Z,9.40
2022-12-20T10:52:16.234Z,10.85
2022-12-20T10:54:48.071Z,10.10
2022-12-20T10:57:28.897Z,10.23
2022-12-20T11:00:02.059Z,10.13
2022-12-20T11:02:42.616Z,10.82
2022-12-20T11:05:25.739Z,10.25
2022-12-20T11:08:34.602Z,11.73
2022-12-20T11:10:51.412Z,11.13
2022-12-20T11:13:27.524Z,10.50
2022-12-20T11:16:03.067Z,10.43
2022-12-20T11:19:05.539Z,11.48
2022-12-20T11:22:06.614Z,11.20
2022-12-20T11:24:56.991Z,12.40
2022-12-20T11:27:51.663Z,12.75
2022-12-20T11:30:29.795Z,12.90
2022-12-20T11:36:13.374Z,12.30
2022-12-20T11:39:22.200Z,16.90
2022-12-20T11:42:17.788Z,47.05
2022-12-20T11:45:26.643Z,34.35
2022-12-20T11:48:35.345Z,32.50
2022-12-20T11:51:26.921Z,30.65
2022-12-20T11:54:35.827Z,36.35
2022-12-20T11:57:28.794Z,31.98
2022-12-20T12:00:02.932Z,31.13
2022-12-20T12:02:44.484Z,27.95
2022-12-20T12:05:45.653Z,26.52
2022-12-20T12:08:42.854Z,27.73
2022-12-20T12:12:04.487Z,28.45
2022-12-20T12:14:38.592Z,20.10
2022-12-20T12:17:35.392Z,22.98
2022-12-20T12:20:24.313Z,22.30
2022-12-20T12:23:00.448Z,24.00
2022-12-20T12:25:30.208Z,29.10
2022-12-20T12:28:00.324Z,31.77
2022-12-20T12:30:38.623Z,29.70
2022-12-20T12:33:24.359Z,32.17
2022-12-20T12:36:25.724Z,34.43
2022-12-20T12:39:24.197Z,31.80
2022-12-20T12:42:14.637Z,32.30
2022-12-20T12:44:59.779Z,35.60
2022-12-20T12:47:41.561Z,40.90
2022-12-20T12:50:26.367Z,39.83
2022-12-20T12:52:59.029Z,37.72
2022-12-20T12:55:50.816Z,35.15
2022-12-20T12:58:35.664Z,35.03
2022-12-20T13:01:13.454Z,35.90
2022-12-20T13:04:07.338Z,35.78
2022-12-20T13:07:05.274Z,32.75
2022-12-20T13:12:47.997Z,28.52
2022-12-20T13:15:53.221Z,28.10
2022-12-20T13:18:26.675Z,23.88
2022-12-20T13:21:20.469Z,25.98
2022-12-20T13:23:50.152Z,23.55
2022-12-20T13:26:52.388Z,22.08
2022-12-20T13:29:34.881Z,22.45
2022-12-20T13:32:25.229Z,23.42
2022-12-20T13:34:59.874Z,22.75
2022-12-20T13:37:54.725Z,22.75
2022-12-20T13:40:45.744Z,24.05
2022-12-20T13:43:38.027Z,28.00
2022-12-20T13:46:38.306Z,26.80
2022-12-20T13:49:12.412Z,26.33
2022-12-20T13:51:42.020Z,27.60
2022-12-20T13:54:26.694Z,28.85
2022-12-20T13:56:56.959Z,27.77
2022-12-20T13:59:30.755Z,27.13
2022-12-20T14:02:03.190Z,25.98
2022-12-20T14:04:59.333Z,24.63
2022-12-20T14:07:31.715Z,24.20
2022-12-20T14:10:04.262Z,21.92
2022-12-20T14:12:36.955Z,24.23
2022-12-20T14:15:29.244Z,22.50
2022-12-20T14:17:59.557Z,23.25
2022-12-20T14:20:33.883Z,23.60
2022-12-20T14:23:25.271Z,26.25
2022-12-20T14:26:03.751Z,26.58
2022-12-20T14:28:54.320Z,34.83
2022-12-20T14:31:37.148Z,38.03
2022-12-20T14:34:22.221Z,35.00
2022-12-20T14:37:15.103Z,34.95
2022-12-20T14:39:59.925Z,33.95
2022-12-20T14:42:36.398Z,34.78
2022-12-20T14:45:18.906Z,29.65
2022-12-20T14:48:08.303Z,28.45
2022-12-20T14:50:42.421Z,29.10
2022-12-20T14:53:26.880Z,29.58
2022-12-20T14:55:56.807Z,30.92
2022-12-20T14:58:35.734Z,28.80
2022-12-20T15:01:26.532Z,32.15
2022-12-20T15:03:59.082Z,32.75
2022-12-20T15:06:49.927Z,32.03
2022-12-20T15:09:19.840Z,35.05
2022-12-20T15:11:50.487Z,31.42
2022-12-20T15:14:41.072Z,29.98
2022-12-20T15:17:16.315Z,28.50
2022-12-20T15:19:46.349Z,30.95
2022-12-20T15:22:22.307Z,33.45
2022-12-20T15:24:52.051Z,31.00
2022-12-20T15:27:21.864Z,31.92
2022-12-20T15:29:51.612Z,30.55
2022-12-20T15:32:33.841Z,30.80
2022-12-20T15:35:04.960Z,31.83
2022-12-20T15:37:34.529Z,32.40
2022-12-20T15:40:04.130Z,31.27
2022-12-20T15:42:33.898Z,31.33
2022-12-20T15:45:04.338Z,29.73
2022-12-20T15:47:33.934Z,32.00
2022-12-20T15:50:03.582Z,28.48
2022-12-20T15:52:34.516Z,29.90
2022-12-20T15:55:04.111Z,29.73
2022-12-20T15:57:33.792Z,30.08
2022-12-20T16:00:04.181Z,30.35
2022-12-20T16:02:35.271Z,30.20
2022-12-20T16:05:06.000Z,30.23
2022-12-20T16:07:35.556Z,29.63
2022-12-20T16:10:05.300Z,31.60
2022-12-20T16:12:37.843Z,28.95
2022-12-20T16:15:09.827Z,31.55
2022-12-20T16:17:39.467Z,30.52
2022-12-20T16:20:10.395Z,30.10
2022-12-20T16:22:40.159Z,31.13
2022-12-20T16:25:20.084Z,30.80
2022-12-20T16:27:49.913Z,31.73
2022-12-20T16:30:19.606Z,30.02
2022-12-20T16:32:49.304Z,30.33
2022-12-20T16:35:39.323Z,30.23
2022-12-20T16:38:09.162Z,29.65
2022-12-20T16:40:38.810Z,29.75
2022-12-20T16:43:15.147Z,29.95
2022-12-20T16:45:45.124Z,29.60
2022-12-20T16:48:14.858Z,28.45
2022-12-20T16:50:45.209Z,28.20
2022-12-20T16:53:17.204Z,27.35
2022-12-20T16:55:47.243Z,26.30
2022-12-20T16:58:16.804Z,26.92
2022-12-20T17:00:46.925Z,26.52
2022-12-20T17:03:16.803Z,30.10
2022-12-20T17:05:47.327Z,30.13
2022-12-20T17:11:02.448Z,34.55
2022-12-20T17:13:32.094Z,34.20
2022-12-20T17:16:01.726Z,31.90
2022-12-20T17:18:31.523Z,34.78
2022-12-20T17:21:02.795Z,32.08
2022-12-20T17:23:45.278Z,33.10
2022-12-20T17:26:21.847Z,30.67
2022-12-20T17:28:57.522Z,34.38
2022-12-20T17:31:33.321Z,34.10
2022-12-20T17:34:05.761Z,35.83
2022-12-20T17:36:37.992Z,31.85
2022-12-20T17:39:07.963Z,29.55
2022-12-20T17:41:38.554Z,27.75
2022-12-20T17:44:09.253Z,27.60
2022-12-20T17:46:38.912Z,27.20
2022-12-20T17:49:08.592Z,25.00
2022-12-20T17:51:38.250Z,24.92
2022-12-20T17:54:08.253Z,23.20
2022-12-20T17:56:38.888Z,23.98
2022-12-20T17:59:08.652Z,25.17
2022-12-20T18:01:38.560Z,26.50
2022-12-20T18:04:10.607Z,23.77
2022-12-20T18:06:41.935Z,23.92
2022-12-20T18:09:20.287Z,22.10
2022-12-20T18:14:19.775Z,22.05
2022-12-20T18:16:49.437Z,21.38
2022-12-20T18:19:22.237Z,19.92
2022-12-20T18:21:51.904Z,20.60
2022-12-20T18:24:23.174Z,20.60
2022-12-20T18:26:52.788Z,20.23
2022-12-20T18:29:22.334Z,19.95
2022-12-20T18:31:51.987Z,19.58
2022-12-20T18:34:22.199Z,20.20
2022-12-20T18:36:52.152Z,19.60
2022-12-20T18:39:21.796Z,19.42
2022-12-20T18:41:51.469Z,21.05
2022-12-20T18:44:21.083Z,18.38
2022-12-20T18:46:50.594Z,19.83
2022-12-20T18:49:20.718Z,19.45
2022-12-20T18:51:50.490Z,19.48
2022-12-20T18:54:20.171Z,19.55
2022-12-20T18:56:52.507Z,18.35
2022-12-20T18:59:22.936Z,19.20
2022-12-20T19:01:54.002Z,19.58
2022-12-20T19:04:25.190Z,19.00
2022-12-20T19:06:55.306Z,19.40
2022-12-20T19:09:25.203Z,18.65
2022-12-20T19:11:57.362Z,20.70
2022-12-20T19:14:27.907Z,18.98
2022-12-20T19:16:57.607Z,18.23
2022-12-20T19:19:28.149Z,18.35
2022-12-20T19:21:57.925Z,18.83
2022-12-20T19:24:27.534Z,19.23
2022-12-20T19:26:57.304Z,18.45
2022-12-20T19:29:27.015Z,18.67
2022-12-20T19:31:57.084Z,17.77
2022-12-20T19:34:26.694Z,18.13
2022-12-20T19:36:56.908Z,18.67
2022-12-20T19:39:26.561Z,17.42
2022-12-20T19:42:22.255Z,18.55
2022-12-20T19:44:45.906Z,17.77
2022-12-20T19:47:15.504Z,18.48
2022-12-20T19:49:45.095Z,17.80
2022-12-20T19:52:14.844Z,17.67
2022-12-20T19:54:45.179Z,18.30
2022-12-20T19:57:15.067Z,17.45
2022-12-20T19:59:44.723Z,17.95
2022-12-20T20:02:17.757Z,18.42
2022-12-20T20:04:47.817Z,19.52
2022-12-20T20:07:17.407Z,19.33
2022-12-20T20:09:47.023Z,19.17
2022-12-20T20:12:16.615Z,18.30
2022-12-20T20:14:46.180Z,17.50
2022-12-20T20:17:15.705Z,17.17
2022-12-20T20:19:45.704Z,18.23
2022-12-20T20:22:22.527Z,18.23
2022-12-20T20:24:52.703Z,17.17
2022-12-20T20:27:22.366Z,16.73
2022-12-20T20:29:52.883Z,16.55
2022-12-20T20:32:22.396Z,17.60
2022-12-20T20:34:52.278Z,18.23
2022-12-20T20:37:22.311Z,18.08
2022-12-20T20:39:51.978Z,16.30
2022-12-20T20:42:23.433Z,17.70
2022-12-20T20:44:53.433Z,17.52
2022-12-20T20:47:23.342Z,17.15
2022-12-20T20:49:54.606Z,17.60
2022-12-20T20:52:24.323Z,17.95
2022-12-20T20:54:53.875Z,17.90
2022-12-20T20:57:23.600Z,18.13
2022-12-20T20:59:53.246Z,17.70
2022-12-20T21:02:25.274Z,16.88
2022-12-20T21:05:35.618Z,17.25
2022-12-20T21:07:44.874Z,17.27
2022-12-20T21:10:15.102Z,16.23
2022-12-20T21:12:45.249Z,16.20
2022-12-20T21:15:23.931Z,15.20
2022-12-20T21:17:54.114Z,16.67
2022-12-20T21:20:26.194Z,17.15
2022-12-20T21:22:56.741Z,15.88
2022-12-20T21:25:26.393Z,15.85
2022-12-20T21:27:56.135Z,15.55
2022-12-20T21:30:26.248Z,16.23
2022-12-20T21:32:55.875Z,15.13
2022-12-20T21:35:25.753Z,15.57
2022-12-20T21:37:55.747Z,16.83
2022-12-20T21:40:25.423Z,16.60
2022-12-20T21:42:54.995Z,15.63
2022-12-20T21:45:24.627Z,15.68
2022-12-20T21:47:58.172Z,14.90
2022-12-20T21:50:32.380Z,16.38
2022-12-20T21:53:01.917Z,15.65
2022-12-20T21:55:31.464Z,15.85
2022-12-20T21:58:00.958Z,15.55
2022-12-20T22:00:30.609Z,17.17
2022-12-20T22:03:00.346Z,15.85
2022-12-20T22:05:29.959Z,15.30
2022-12-20T22:07:59.561Z,16.25
2022-12-20T22:10:29.490Z,16.20
2022-12-20T22:12:59.079Z,15.30
2022-12-20T22:15:29.366Z,16.15
2022-12-20T22:17:58.906Z,17.67
2022-12-20T22:20:28.573Z,16.02
2022-12-20T22:22:58.264Z,17.48
2022-12-20T22:25:28.231Z,17.67
2022-12-20T22:27:58.277Z,16.80
2022-12-20T22:30:27.956Z,17.63
2022-12-20T22:32:57.603Z,17.27
2022-12-20T22:35:27.455Z,18.10
2022-12-20T22:37:57.615Z,18.33
2022-12-20T22:40:27.220Z,17.70
2022-12-20T22:42:56.831Z,18.58
2022-12-20T22:45:26.456Z,18.52
2022-12-20T22:47:56.043Z,19.17
2022-12-20T22:50:25.618Z,19.55
2022-12-20T22:52:55.293Z,19.77
2022-12-20T22:55:24.833Z,18.65
2022-12-20T22:57:54.351Z,19.90
2022-12-20T23:00:24.218Z,19.05
2022-12-20T23:02:53.943Z,19.27
2022-12-20T23:05:23.727Z,19.00
2022-12-20T23:07:53.375Z,18.70
2022-12-20T23:10:42.579Z,19.67
2022-12-20T23:13:34.227Z,19.92
2022-12-20T23:16:03.838Z,19.05
2022-12-20T23:18:33.510Z,19.17
2022-12-20T23:21:22.783Z,18.13
2022-12-20T23:23:55.856Z,19.65
2022-12-20T23:26:26.086Z,19.65
2022-12-20T23:28:55.664Z,19.10
2022-12-20T23:31:25.323Z,18.88
2022-12-20T23:33:55.131Z,21.02
2022-12-20T23:36:25.092Z,19.05
2022-12-20T23:38:55.231Z,20.42
2022-12-20T23:41:25.308Z,21.17
2022-12-20T23:43:54.910Z,21.63
2022-12-20T23:46:25.122Z,23.48
2022-12-20T23:48:55.202Z,24.55
2022-12-20T23:51:25.342Z,22.50
2022-12-20T23:53:55.001Z,21.33
2022-12-20T23:56:26.425Z,22.13
2022-12-20T23:58:57.314Z,20.02
